Observation data for Silverton on 08/14/2019      Previous  Date  Next       Current Mesonet Observations  Soil Data  Daily Summary Page  Observations in Plain Language
KSVS 140500Z 08008KT 25/17 A3016 RMK A01 T02500167  RH  063%=      5-min Rain = 0
KSVS 140505Z 08008KT 25/17 A3016 RMK A01 T02490166  RH  063%=      5-min Rain = 0
KSVS 140510Z 09010KT 25/17 A3015 RMK A01 T02490166  RH  063%=      5-min Rain = 0
KSVS 140515Z 08008KT 25/17 A3015 RMK A01 T02490166  RH  063%=      5-min Rain = 0
KSVS 140520Z 08008KT 25/17 A3015 RMK A01 T02480165  RH  063%=      5-min Rain = 0
KSVS 140525Z 08007KT 25/17 A3016 RMK A01 T02460165  RH  063%=      5-min Rain = 0
KSVS 140530Z 07009KT 25/16 A3016 RMK A01 T02460164  RH  063%=      5-min Rain = 0
KSVS 140535Z 06009KT 25/16 A3017 RMK A01 T02470164  RH  063%=      5-min Rain = 0
KSVS 140540Z 06010KT 25/16 A3017 RMK A01 T02470164  RH  063%=      5-min Rain = 0
KSVS 140545Z 06010KT 25/16 A3017 RMK A01 T02480164  RH  062%=      5-min Rain = 0
KSVS 140550Z 06011KT 25/16 A3018 RMK A01 T02470164  RH  063%=      5-min Rain = 0
KSVS 140555Z 06012G17KT 25/17 A3018 RMK A01 T02480165  RH  063%=      5-min Rain = 0
KSVS 140600Z 06013KT 25/17 A3018 RMK A01 T02510166  RH  062%=      5-min Rain = 0
KSVS 140605Z 07013G18KT 25/17 A3018 RMK A01 T02510165  RH  062%=      5-min Rain = 0
KSVS 140610Z 06012KT 25/17 A3018 RMK A01 T02500165  RH  062%=      5-min Rain = 0
KSVS 140615Z 06011KT 25/17 A3018 RMK A01 T02480166  RH  063%=      5-min Rain = 0
KSVS 140620Z 06012KT 25/17 A3018 RMK A01 T02470166  RH  064%=      5-min Rain = 0
KSVS 140625Z 07012KT 25/17 A3018 RMK A01 T02470167  RH  064%=      5-min Rain = 0
KSVS 140630Z 07011KT 25/17 A3018 RMK A01 T02460167  RH  064%=      5-min Rain = 0
KSVS 140635Z 07010KT 24/17 A3019 RMK A01 T02440167  RH  065%=      5-min Rain = 0
KSVS 140640Z 08009KT 24/17 A3018 RMK A01 T02430167  RH  066%=      5-min Rain = 0
KSVS 140645Z 09009KT 24/17 A3018 RMK A01 T02410168  RH  067%=      5-min Rain = 0
KSVS 140650Z 08009KT 24/17 A3018 RMK A01 T02400168  RH  067%=      5-min Rain = 0
KSVS 140655Z 07011KT 24/17 A3018 RMK A01 T02400168  RH  067%=      5-min Rain = 0
KSVS 140700Z 07009KT 24/17 A3018 RMK A01 T02390168  RH  067%=      5-min Rain = 0
KSVS 140705Z 08008KT 24/17 A3018 RMK A01 T02370168  RH  068%=      5-min Rain = 0
KSVS 140710Z 08008KT 24/17 A3017 RMK A01 T02360169  RH  069%=      5-min Rain = 0
KSVS 140715Z 08009KT 24/17 A3017 RMK A01 T02370169  RH  069%=      5-min Rain = 0
KSVS 140720Z 09008KT 24/17 A3017 RMK A01 T02360169  RH  070%=      5-min Rain = 0
KSVS 140725Z 10008KT 23/17 A3016 RMK A01 T02340170  RH  071%=      5-min Rain = 0
KSVS 140730Z 10008KT 23/17 A3016 RMK A01 T02320171  RH  072%=      5-min Rain = 0
KSVS 140735Z 08008KT 23/17 A3016 RMK A01 T02310171  RH  073%=      5-min Rain = 0
KSVS 140740Z 05011G16KT 23/17 A3017 RMK A01 T02310170  RH  072%=      5-min Rain = 0
KSVS 140745Z 05013KT 23/17 A3017 RMK A01 T02330171  RH  072%=      5-min Rain = 0
KSVS 140750Z 04011KT 23/17 A3017 RMK A01 T02300169  RH  072%=      5-min Rain = 0
KSVS 140755Z 03011KT 23/17 A3017 RMK A01 T02250167  RH  073%=      5-min Rain = 0
KSVS 140800Z 03012G17KT 22/17 A3018 RMK A01 T02240166  RH  073%=      5-min Rain = 0
KSVS 140805Z 03011KT 22/15 A3017 RMK A01 T02160152  RH  070%=      5-min Rain = 0
KSVS 140810Z 03012KT 21/15 A3017 RMK A01 T02120148  RH  070%=      5-min Rain = 0
KSVS 140815Z 03013G18KT 21/14 A3017 RMK A01 T02100142  RH  068%=      5-min Rain = 0
KSVS 140820Z 03014KT 21/14 A3018 RMK A01 T02090139  RH  067%=      5-min Rain = 0
KSVS 140825Z 04013KT 21/14 A3018 RMK A01 T02090137  RH  066%=      5-min Rain = 0
KSVS 140830Z 03010KT 21/14 A3018 RMK A01 T02070137  RH  067%=      5-min Rain = 0
KSVS 140835Z 03010KT 20/14 A3018 RMK A01 T02040137  RH  068%=      5-min Rain = 0
KSVS 140840Z 03009KT 20/14 A3017 RMK A01 T02020136  RH  069%=      5-min Rain = 0
KSVS 140845Z 03012KT 20/13 A3017 RMK A01 T02010131  RH  067%=      5-min Rain = 0
KSVS 140850Z 03010KT 20/13 A3017 RMK A01 T02010129  RH  066%=      5-min Rain = 0
KSVS 140855Z 03008KT 20/13 A3017 RMK A01 T01980128  RH  067%=      5-min Rain = 0
KSVS 140900Z 03007KT 20/13 A3017 RMK A01 T01950128  RH  068%=      5-min Rain = 0
KSVS 140905Z 03009KT 20/13 A3017 RMK A01 T01950128  RH  067%=      5-min Rain = 0
KSVS 140910Z 03009KT 20/13 A3017 RMK A01 T01960127  RH  067%=      5-min Rain = 0
KSVS 140915Z 02009KT 19/13 A3018 RMK A01 T01940127  RH  068%=      5-min Rain = 0
KSVS 140920Z 02010KT 19/13 A3018 RMK A01 T01940127  RH  068%=      5-min Rain = 0
KSVS 140925Z 02012KT 20/13 A3018 RMK A01 T01950126  RH  067%=      5-min Rain = 0
KSVS 140930Z 03010G15KT 20/13 A3019 RMK A01 T01960125  RH  066%=      5-min Rain = 0
KSVS 140935Z 02008KT 19/13 A3019 RMK A01 T01940125  RH  067%=      5-min Rain = 0
KSVS 140940Z 02008KT 19/13 A3019 RMK A01 T01920125  RH  068%=      5-min Rain = 0
KSVS 140945Z 02008KT 19/13 A3019 RMK A01 T01910125  RH  068%=      5-min Rain = 0
KSVS 140950Z 02009KT 19/13 A3019 RMK A01 T01910125  RH  068%=      5-min Rain = 0
KSVS 140955Z 02008KT 19/13 A302 RMK A01 T01910125  RH  068%=      5-min Rain = 0
KSVS 141000Z 02009KT 19/13 A302 RMK A01 T01900125  RH  068%=      5-min Rain = 0
KSVS 141005Z 01009KT 19/12 A302 RMK A01 T01900124  RH  068%=      5-min Rain = 0
KSVS 141010Z 01008KT 19/12 A302 RMK A01 T01890124  RH  069%=      5-min Rain = 0
KSVS 141015Z 01008KT 19/12 A3021 RMK A01 T01870124  RH  069%=      5-min Rain = 0
KSVS 141020Z 01008KT 19/12 A3021 RMK A01 T01880124  RH  069%=      5-min Rain = 0
KSVS 141025Z 02008KT 19/12 A3021 RMK A01 T01870124  RH  069%=      5-min Rain = 0
KSVS 141030Z 03008KT 19/12 A3021 RMK A01 T01870124  RH  069%=      5-min Rain = 0
KSVS 141035Z 03008KT 19/13 A3021 RMK A01 T01870125  RH  070%=      5-min Rain = 0
KSVS 141040Z 04008KT 19/13 A3021 RMK A01 T01870126  RH  070%=      5-min Rain = 0
KSVS 141045Z 03007KT 19/13 A3021 RMK A01 T01860125  RH  070%=      5-min Rain = 0
KSVS 141050Z 02008KT 19/13 A3021 RMK A01 T01850126  RH  071%=      5-min Rain = 0
KSVS 141055Z 02009KT 19/13 A3022 RMK A01 T01850126  RH  071%=      5-min Rain = 0
KSVS 141100Z 02009KT 18/13 A3022 RMK A01 T01840126  RH  072%=      5-min Rain = 0
KSVS 141105Z 02008KT 19/13 A3022 RMK A01 T01850126  RH  071%=      5-min Rain = 0
KSVS 141110Z 02007KT 18/13 A3022 RMK A01 T01840126  RH  072%=      5-min Rain = 0
KSVS 141115Z 02007KT 18/13 A3022 RMK A01 T01830127  RH  073%=      5-min Rain = 0
KSVS 141120Z 02006KT 18/13 A3022 RMK A01 T01830128  RH  073%=      5-min Rain = 0
KSVS 141125Z 03005KT 19/13 A3022 RMK A01 T01850128  RH  072%=      5-min Rain = 0
KSVS 141130Z 03006KT 18/13 A3022 RMK A01 T01830128  RH  073%=      5-min Rain = 0
KSVS 141135Z 03006KT 18/13 A3022 RMK A01 T01830129  RH  074%=      5-min Rain = 0
KSVS 141140Z 02006KT 18/13 A3022 RMK A01 T01820130  RH  074%=      5-min Rain = 0
KSVS 141145Z 03007KT 18/13 A3022 RMK A01 T01810130  RH  075%=      5-min Rain = 0
KSVS 141150Z 05005KT 18/13 A3022 RMK A01 T01800130  RH  075%=      5-min Rain = 0
KSVS 141155Z 03005KT 18/13 A3023 RMK A01 T01800130  RH  076%=      5-min Rain = 0
KSVS 141200Z 03006KT 18/13 A3022 RMK A01 T01770130  RH  077%=      5-min Rain = 0
KSVS 141205Z 03006KT 18/13 A3022 RMK A01 T01750129  RH  078%=      5-min Rain = 0
KSVS 141210Z 03006KT 17/13 A3023 RMK A01 T01740130  RH  078%=      5-min Rain = 0
KSVS 141215Z 36011KT 18/13 A3024 RMK A01 T01750131  RH  079%=      5-min Rain = 0
KSVS 141220Z 00007KT 18/13 A3024 RMK A01 T01810133  RH  077%=      5-min Rain = 0
KSVS 141225Z 36006KT 18/13 A3024 RMK A01 T01820133  RH  076%=      5-min Rain = 0
KSVS 141230Z 34007KT 18/13 A3024 RMK A01 T01830133  RH  076%=      5-min Rain = 0
KSVS 141235Z 33006KT 18/13 A3024 RMK A01 T01820131  RH  075%=      5-min Rain = 0
KSVS 141240Z 35006KT 18/13 A3024 RMK A01 T01840133  RH  075%=      5-min Rain = 0
KSVS 141245Z 35006KT 19/13 A3024 RMK A01 T01860134  RH  074%=      5-min Rain = 0
KSVS 141250Z 35005KT 19/14 A3024 RMK A01 T01900135  RH  073%=      5-min Rain = 0
KSVS 141255Z 36008KT 19/14 A3024 RMK A01 T01930135  RH  072%=      5-min Rain = 0
KSVS 141300Z 01007KT 20/14 A3024 RMK A01 T01970136  RH  071%=      5-min Rain = 0
KSVS 141305Z 01005KT 20/14 A3023 RMK A01 T02020138  RH  069%=      5-min Rain = 0
KSVS 141310Z 35006KT 21/14 A3023 RMK A01 T02050139  RH  069%=      5-min Rain = 0
KSVS 141315Z 36006KT 21/14 A3023 RMK A01 T02080139  RH  067%=      5-min Rain = 0
KSVS 141320Z 01007KT 21/14 A3024 RMK A01 T02110140  RH  066%=      5-min Rain = 0
KSVS 141325Z 36008G13KT 21/14 A3025 RMK A01 T02120140  RH  066%=      5-min Rain = 0
KSVS 141330Z 36009KT 22/14 A3025 RMK A01 T02150140  RH  065%=      5-min Rain = 0
KSVS 141335Z 36009KT 21/14 A3025 RMK A01 T02130139  RH  065%=      5-min Rain = 0
KSVS 141340Z 35010KT 21/14 A3025 RMK A01 T02130140  RH  065%=      5-min Rain = 0
KSVS 141345Z 36010KT 22/14 A3025 RMK A01 T02150140  RH  065%=      5-min Rain = 0
KSVS 141350Z 36007KT 21/14 A3025 RMK A01 T02120139  RH  066%=      5-min Rain = 0
KSVS 141355Z 35006KT 22/14 A3025 RMK A01 T02150140  RH  065%=      5-min Rain = 0
KSVS 141400Z 35007KT 22/14 A3026 RMK A01 T02170141  RH  065%=      5-min Rain = 0
KSVS 141405Z 33008KT 22/14 A3026 RMK A01 T02170141  RH  065%=      5-min Rain = 0
KSVS 141410Z 33009KT 22/14 A3027 RMK A01 T02180140  RH  064%=      5-min Rain = 0
KSVS 141415Z 33009KT 22/14 A3026 RMK A01 T02170138  RH  064%=      5-min Rain = 0
KSVS 141420Z 33008KT 22/14 A3026 RMK A01 T02210139  RH  062%=      5-min Rain = 0
KSVS 141425Z 32007KT 23/14 A3026 RMK A01 T02250140  RH  061%=      5-min Rain = 0
KSVS 141430Z 33006KT 23/14 A3025 RMK A01 T02260139  RH  061%=      5-min Rain = 0
KSVS 141435Z 34004KT 23/14 A3025 RMK A01 T02290140  RH  060%=      5-min Rain = 0
KSVS 141440Z 34004KT 23/14 A3025 RMK A01 T02340141  RH  058%=      5-min Rain = 0
KSVS 141445Z 34003KT 24/14 A3025 RMK A01 T02380141  RH  057%=      5-min Rain = 0
KSVS 141450Z 04002KT 24/14 A3025 RMK A01 T02360143  RH  058%=      5-min Rain = 0
KSVS 141455Z 02001KT 24/14 A3025 RMK A01 T02400143  RH  057%=      5-min Rain = 0
KSVS 141500Z 07002KT 24/14 A3025 RMK A01 T02420143  RH  056%=      5-min Rain = 0
KSVS 141505Z 08004KT 24/14 A3024 RMK A01 T02400143  RH  057%=      5-min Rain = 0
KSVS 141510Z 08005KT 24/14 A3024 RMK A01 T02400144  RH  057%=      5-min Rain = 0
KSVS 141515Z 09005KT 24/15 A3023 RMK A01 T02420145  RH  057%=      5-min Rain = 0
KSVS 141520Z 11005KT 24/15 A3024 RMK A01 T02440146  RH  056%=      5-min Rain = 0
KSVS 141525Z 13006KT 25/15 A3024 RMK A01 T02460146  RH  056%=      5-min Rain = 0
KSVS 141530Z 12007KT 25/15 A3023 RMK A01 T02460147  RH  056%=      5-min Rain = 0
KSVS 141535Z 12008KT 25/15 A3023 RMK A01 T02480148  RH  056%=      5-min Rain = 0
KSVS 141540Z 12006KT 25/15 A3023 RMK A01 T02500148  RH  056%=      5-min Rain = 0
KSVS 141545Z 13006KT 25/15 A3023 RMK A01 T02520149  RH  055%=      5-min Rain = 0
KSVS 141550Z 15005KT 25/15 A3024 RMK A01 T02540149  RH  054%=      5-min Rain = 0
KSVS 141555Z 15006KT 26/15 A3024 RMK A01 T02590148  RH  053%=      5-min Rain = 0
KSVS 141600Z 13005KT 26/15 A3024 RMK A01 T02560148  RH  054%=      5-min Rain = 0
KSVS 141605Z 14006KT 26/15 A3024 RMK A01 T02590149  RH  053%=      5-min Rain = 0
KSVS 141610Z 12004KT 26/15 A3024 RMK A01 T02630149  RH  052%=      5-min Rain = 0
KSVS 141615Z 14006KT 26/15 A3023 RMK A01 T02610149  RH  052%=      5-min Rain = 0
KSVS 141620Z 15006KT 27/15 A3023 RMK A01 T02660150  RH  051%=      5-min Rain = 0
KSVS 141625Z 16007KT 27/15 A3022 RMK A01 T02670151  RH  051%=      5-min Rain = 0
KSVS 141630Z 14006KT 27/15 A3022 RMK A01 T02730151  RH  049%=      5-min Rain = 0
KSVS 141635Z 16003KT 28/15 A3022 RMK A01 T02760152  RH  049%=      5-min Rain = 0
KSVS 141640Z 17002KT 28/15 A3023 RMK A01 T02810151  RH  047%=      5-min Rain = 0
KSVS 141645Z 01002KT 28/15 A3023 RMK A01 T02770148  RH  047%=      5-min Rain = 0
KSVS 141650Z 03005KT 28/15 A3023 RMK A01 T02770145  RH  046%=      5-min Rain = 0
KSVS 141655Z 05005KT 28/14 A3022 RMK A01 T02780141  RH  045%=      5-min Rain = 0
KSVS 141700Z 03005KT 29/14 A3022 RMK A01 T02860140  RH  043%=      5-min Rain = 0
KSVS 141705Z 03007KT 29/14 A3022 RMK A01 T02900138  RH  041%=      5-min Rain = 0
KSVS 141710Z 04009G14KT 29/14 A3022 RMK A01 T02920136  RH  040%=      5-min Rain = 0
KSVS 141715Z 04007G15KT 29/13 A3021 RMK A01 T02930134  RH  039%=      5-min Rain = 0
KSVS 141720Z 02009G15KT 30/12 A3021 RMK A01 T02980122  RH  035%=      5-min Rain = 0
KSVS 141725Z 03008G14KT 30/12 A3022 RMK A01 T02970116  RH  034%=      5-min Rain = 0
KSVS 141730Z 04010G18KT 30/12 A3022 RMK A01 T02980118  RH  034%=      5-min Rain = 0
KSVS 141735Z 04009G14KT 30/12 A3021 RMK A01 T03030122  RH  034%=      5-min Rain = 0
KSVS 141740Z 03012G18KT 30/11 A3021 RMK A01 T02990114  RH  033%=      5-min Rain = 0
KSVS 141745Z 03011G19KT 30/12 A3021 RMK A01 T02970122  RH  035%=      5-min Rain = 0
KSVS 141750Z 03012G17KT 30/12 A3021 RMK A01 T02970120  RH  035%=      5-min Rain = 0
KSVS 141755Z 02012G19KT 30/12 A3021 RMK A01 T02950122  RH  036%=      5-min Rain = 0
KSVS 141800Z 01011G16KT 30/13 A3021 RMK A01 T02980127  RH  036%=      5-min Rain = 0
KSVS 141805Z 02010G15KT 30/13 A3021 RMK A01 T02970127  RH  037%=      5-min Rain = 0
KSVS 141810Z 03009G16KT 30/13 A3021 RMK A01 T02980133  RH  038%=      5-min Rain = 0
KSVS 141815Z 02009G15KT 30/14 A3021 RMK A01 T02980136  RH  039%=      5-min Rain = 0
KSVS 141820Z 01008G15KT 30/14 A3021 RMK A01 T03010136  RH  038%=      5-min Rain = 0
KSVS 141825Z 00008G14KT 30/14 A3021 RMK A01 T02980136  RH  039%=      5-min Rain = 0
KSVS 141830Z 35011G16KT 30/14 A3021 RMK A01 T03030137  RH  038%=      5-min Rain = 0
KSVS 141835Z 35008G13KT 30/14 A3021 RMK A01 T03040136  RH  037%=      5-min Rain = 0
KSVS 141840Z 01011G20KT 31/13 A3021 RMK A01 T03100134  RH  035%=      5-min Rain = 0
KSVS 141845Z 02009G15KT 31/13 A302 RMK A01 T03050130  RH  036%=      5-min Rain = 0
KSVS 141850Z 01009G15KT 30/13 A302 RMK A01 T03000130  RH  037%=      5-min Rain = 0
KSVS 141855Z 01006G11KT 30/13 A302 RMK A01 T03010129  RH  036%=      5-min Rain = 0
KSVS 141900Z 02008KT 30/13 A3019 RMK A01 T03030127  RH  035%=      5-min Rain = 0
KSVS 141905Z 02005G12KT 30/12 A3019 RMK A01 T03020123  RH  035%=      5-min Rain = 0
KSVS 141910Z 01005KT 31/12 A3018 RMK A01 T03090122  RH  033%=      5-min Rain = 0
KSVS 141915Z 07006KT 31/12 A3018 RMK A01 T03080117  RH  032%=      5-min Rain = 0
KSVS 141920Z 08005G10KT 31/12 A3018 RMK A01 T03090116  RH  032%=      5-min Rain = 0
KSVS 141925Z 11007KT 31/11 A3018 RMK A01 T03100113  RH  031%=      5-min Rain = 0
KSVS 141930Z 07005KT 31/11 A3017 RMK A01 T03090112  RH  031%=      5-min Rain = 0
KSVS 141935Z 12002G7KT 31/11 A3017 RMK A01 T03110112  RH  030%=      5-min Rain = 0
KSVS 141940Z 09007G12KT 32/11 A3017 RMK A01 T03190105  RH  028%=      5-min Rain = 0
KSVS 141945Z 11007KT 32/10 A3017 RMK A01 T03210101  RH  027%=      5-min Rain = 0
KSVS 141950Z 14004G10KT 32/10 A3016 RMK A01 T03180102  RH  027%=      5-min Rain = 0
KSVS 141955Z 11007KT 32/11 A3016 RMK A01 T03230107  RH  028%=      5-min Rain = 0
KSVS 142000Z 09007G12KT 32/11 A3016 RMK A01 T03230105  RH  027%=      5-min Rain = 0
KSVS 142005Z 16005KT 32/10 A3016 RMK A01 T03190103  RH  027%=      5-min Rain = 0
KSVS 142010Z 13004G10KT 32/11 A3015 RMK A01 T03220107  RH  028%=      5-min Rain = 0
KSVS 142015Z 10008KT 33/11 A3016 RMK A01 T03270109  RH  027%=      5-min Rain = 0
KSVS 142020Z 10005G10KT 32/11 A3015 RMK A01 T03230110  RH  028%=      5-min Rain = 0
KSVS 142025Z 12004KT 32/11 A3015 RMK A01 T03220110  RH  028%=      5-min Rain = 0
KSVS 142030Z 11003KT 33/11 A3015 RMK A01 T03260110  RH  028%=      5-min Rain = 0
KSVS 142035Z 16003KT 33/11 A3015 RMK A01 T03290109  RH  027%=      5-min Rain = 0
KSVS 142040Z 11006KT 33/11 A3014 RMK A01 T03270113  RH  028%=      5-min Rain = 0
KSVS 142045Z 04006KT 33/12 A3014 RMK A01 T03290116  RH  028%=      5-min Rain = 0
KSVS 142050Z 03004KT 32/12 A3014 RMK A01 T03240115  RH  029%=      5-min Rain = 0
KSVS 142055Z 10003KT 32/12 A3014 RMK A01 T03220117  RH  030%=      5-min Rain = 0
KSVS 142100Z 08006G13KT 33/12 A3013 RMK A01 T03310118  RH  028%=      5-min Rain = 0
KSVS 142105Z 12005G11KT 32/12 A3013 RMK A01 T03240116  RH  029%=      5-min Rain = 0
KSVS 142110Z 10005G13KT 33/12 A3013 RMK A01 T03320119  RH  028%=      5-min Rain = 0
KSVS 142115Z 12006G11KT 33/12 A3012 RMK A01 T03300121  RH  029%=      5-min Rain = 0
KSVS 142120Z 07005G10KT 33/12 A3012 RMK A01 T03310117  RH  028%=      5-min Rain = 0
KSVS 142125Z 02005KT 33/11 A3012 RMK A01 T03340109  RH  026%=      5-min Rain = 0
KSVS 142130Z 35004KT 33/11 A3012 RMK A01 T03330109  RH  026%=      5-min Rain = 0
KSVS 142135Z 05008KT 33/11 A3012 RMK A01 T03330108  RH  026%=      5-min Rain = 0
KSVS 142140Z 05008KT 33/11 A3011 RMK A01 T03320111  RH  027%=      5-min Rain = 0
KSVS 142145Z 06005KT 33/11 A3011 RMK A01 T03270109  RH  027%=      5-min Rain = 0
KSVS 142150Z 07004G9KT 33/11 A3011 RMK A01 T03290111  RH  027%=      5-min Rain = 0
KSVS 142155Z 05007KT 33/12 A3011 RMK A01 T03320115  RH  028%=      5-min Rain = 0
KSVS 142200Z 31006KT 33/12 A3011 RMK A01 T03280115  RH  028%=      5-min Rain = 0
KSVS 142205Z 29003KT 33/12 A3011 RMK A01 T03300115  RH  028%=      5-min Rain = 0
KSVS 142210Z 05006G11KT 33/12 A301 RMK A01 T03310115  RH  028%=      5-min Rain = 0
KSVS 142215Z 09006G11KT 33/12 A301 RMK A01 T03280115  RH  028%=      5-min Rain = 0
KSVS 142220Z 14003KT 33/12 A301 RMK A01 T03290117  RH  028%=      5-min Rain = 0
KSVS 142225Z 10003KT 33/12 A301 RMK A01 T03340117  RH  028%=      5-min Rain = 0
KSVS 142230Z 05008KT 33/12 A301 RMK A01 T03320117  RH  028%=      5-min Rain = 0
KSVS 142235Z 00005KT 33/12 A301 RMK A01 T03330118  RH  028%=      5-min Rain = 0
KSVS 142240Z 02006KT 33/12 A301 RMK A01 T03320117  RH  028%=      5-min Rain = 0
KSVS 142245Z 06005G10KT 33/12 A301 RMK A01 T03330118  RH  028%=      5-min Rain = 0
KSVS 142250Z 06006KT 33/12 A301 RMK A01 T03330119  RH  028%=      5-min Rain = 0
KSVS 142255Z 05003G9KT 33/12 A301 RMK A01 T03340121  RH  028%=      5-min Rain = 0
KSVS 142300Z 04005KT 33/12 A301 RMK A01 T03320123  RH  029%=      5-min Rain = 0
KSVS 142305Z 07009KT 33/12 A301 RMK A01 T03320122  RH  029%=      5-min Rain = 0
KSVS 142310Z 08006KT 33/12 A301 RMK A01 T03300120  RH  029%=      5-min Rain = 0
KSVS 142315Z 06005G10KT 33/12 A301 RMK A01 T03270121  RH  029%=      5-min Rain = 0
KSVS 142320Z 07008KT 33/12 A301 RMK A01 T03330124  RH  029%=      5-min Rain = 0
KSVS 142325Z 09009KT 33/13 A301 RMK A01 T03290125  RH  030%=      5-min Rain = 0
KSVS 142330Z 09009KT 33/12 A301 RMK A01 T03280122  RH  030%=      5-min Rain = 0
KSVS 142335Z 07009KT 33/12 A301 RMK A01 T03280121  RH  029%=      5-min Rain = 0
KSVS 142340Z 10007KT 32/12 A301 RMK A01 T03240120  RH  030%=      5-min Rain = 0
KSVS 142345Z 09007G12KT 33/12 A301 RMK A01 T03260119  RH  029%=      5-min Rain = 0
KSVS 142350Z 07007KT 33/12 A301 RMK A01 T03260118  RH  029%=      5-min Rain = 0
KSVS 142355Z 08006KT 33/12 A301 RMK A01 T03250117  RH  029%=      5-min Rain = 0
KSVS 150000Z 07006KT 32/12 A301 RMK A01 T03220117  RH  030%=      5-min Rain = 0
KSVS 150005Z 09007KT 32/12 A301 RMK A01 T03220118  RH  030%=      5-min Rain = 0
KSVS 150010Z 07005KT 32/12 A301 RMK A01 T03240115  RH  029%=      5-min Rain = 0
KSVS 150015Z 07009KT 32/11 A301 RMK A01 T03210111  RH  029%=      5-min Rain = 0
KSVS 150020Z 07009KT 32/11 A301 RMK A01 T03200110  RH  028%=      5-min Rain = 0
KSVS 150025Z 06010KT 32/11 A301 RMK A01 T03190109  RH  028%=      5-min Rain = 0
KSVS 150030Z 08009KT 32/11 A301 RMK A01 T03170109  RH  029%=      5-min Rain = 0
KSVS 150035Z 07007KT 32/11 A301 RMK A01 T03150109  RH  029%=      5-min Rain = 0
KSVS 150040Z 07010KT 31/11 A301 RMK A01 T03120107  RH  029%=      5-min Rain = 0
KSVS 150045Z 08009KT 31/11 A301 RMK A01 T03100108  RH  030%=      5-min Rain = 0
KSVS 150050Z 08008KT 31/11 A301 RMK A01 T03100108  RH  030%=      5-min Rain = 0
KSVS 150055Z 09007KT 31/11 A3011 RMK A01 T03090110  RH  030%=      5-min Rain = 0
KSVS 150100Z 09007KT 31/11 A3011 RMK A01 T03080110  RH  031%=      5-min Rain = 0
KSVS 150105Z 08007KT 31/11 A3011 RMK A01 T03050109  RH  031%=      5-min Rain = 0
KSVS 150110Z 08006KT 30/11 A3011 RMK A01 T03020109  RH  031%=      5-min Rain = 0
KSVS 150115Z 08006KT 30/11 A3011 RMK A01 T02960109  RH  032%=      5-min Rain = 0
KSVS 150120Z 09006KT 29/11 A3011 RMK A01 T02910110  RH  034%=      5-min Rain = 0
KSVS 150125Z 08006KT 29/11 A3012 RMK A01 T02870110  RH  035%=      5-min Rain = 0
KSVS 150130Z 09005KT 28/11 A3012 RMK A01 T02820110  RH  035%=      5-min Rain = 0
KSVS 150135Z 09006KT 28/11 A3012 RMK A01 T02780110  RH  037%=      5-min Rain = 0
KSVS 150140Z 08006KT 27/11 A3012 RMK A01 T02730110  RH  037%=      5-min Rain = 0
KSVS 150145Z 09006KT 27/11 A3012 RMK A01 T02700110  RH  038%=      5-min Rain = 0
KSVS 150150Z 10007KT 27/11 A3013 RMK A01 T02670110  RH  039%=      5-min Rain = 0
KSVS 150155Z 10006KT 27/11 A3013 RMK A01 T02710114  RH  039%=      5-min Rain = 0
KSVS 150200Z 10006KT 27/12 A3013 RMK A01 T02700118  RH  040%=      5-min Rain = 0
KSVS 150205Z 10006KT 27/12 A3013 RMK A01 T02680121  RH  042%=      5-min Rain = 0
KSVS 150210Z 10006KT 27/12 A3014 RMK A01 T02670123  RH  042%=      5-min Rain = 0
KSVS 150215Z 10006KT 27/13 A3014 RMK A01 T02650125  RH  044%=      5-min Rain = 0
KSVS 150220Z 10006KT 26/13 A3014 RMK A01 T02630128  RH  045%=      5-min Rain = 0
KSVS 150225Z 11007KT 26/13 A3014 RMK A01 T02630129  RH  045%=      5-min Rain = 0
KSVS 150230Z 10007KT 26/13 A3014 RMK A01 T02620130  RH  046%=      5-min Rain = 0
KSVS 150235Z 10007KT 26/13 A3014 RMK A01 T02630131  RH  046%=      5-min Rain = 0
KSVS 150240Z 10007KT 27/13 A3014 RMK A01 T02660132  RH  045%=      5-min Rain = 0
KSVS 150245Z 10008KT 27/13 A3015 RMK A01 T02680133  RH  045%=      5-min Rain = 0
KSVS 150250Z 11008KT 27/13 A3015 RMK A01 T02680134  RH  045%=      5-min Rain = 0
KSVS 150255Z 10008KT 27/14 A3015 RMK A01 T02690136  RH  046%=      5-min Rain = 0
KSVS 150300Z 10008KT 27/14 A3015 RMK A01 T02690139  RH  047%=      5-min Rain = 0
KSVS 150305Z 11008KT 27/14 A3015 RMK A01 T02680140  RH  047%=      5-min Rain = 0
KSVS 150310Z 11008KT 27/14 A3016 RMK A01 T02670141  RH  048%=      5-min Rain = 0
KSVS 150315Z 11007KT 26/14 A3016 RMK A01 T02640143  RH  049%=      5-min Rain = 0
KSVS 150320Z 11007KT 26/14 A3016 RMK A01 T02600144  RH  051%=      5-min Rain = 0
KSVS 150325Z 10007KT 26/15 A3016 RMK A01 T02600145  RH  051%=      5-min Rain = 0
KSVS 150330Z 10008KT 26/15 A3016 RMK A01 T02610147  RH  052%=      5-min Rain = 0
KSVS 150335Z 10008KT 26/15 A3016 RMK A01 T02610147  RH  052%=      5-min Rain = 0
KSVS 150340Z 10008KT 26/15 A3017 RMK A01 T02600147  RH  052%=      5-min Rain = 0
KSVS 150345Z 10008KT 26/15 A3017 RMK A01 T02610147  RH  052%=      5-min Rain = 0
KSVS 150350Z 10008KT 26/15 A3017 RMK A01 T02610146  RH  052%=      5-min Rain = 0
KSVS 150355Z 10008KT 26/15 A3017 RMK A01 T02610147  RH  052%=      5-min Rain = 0
KSVS 150400Z 12008KT 26/15 A3018 RMK A01 T02580146  RH  052%=      5-min Rain = 0
KSVS 150405Z 12008KT 26/15 A3018 RMK A01 T02560147  RH  053%=      5-min Rain = 0
KSVS 150410Z 12008KT 25/15 A3018 RMK A01 T02530147  RH  054%=      5-min Rain = 0
KSVS 150415Z 12007KT 25/15 A3018 RMK A01 T02530147  RH  054%=      5-min Rain = 0
KSVS 150420Z 12007KT 25/15 A3018 RMK A01 T02520146  RH  054%=      5-min Rain = 0
KSVS 150425Z 12007KT 25/15 A3018 RMK A01 T02520145  RH  054%=      5-min Rain = 0
KSVS 150430Z 12007KT 25/14 A3018 RMK A01 T02500144  RH  054%=      5-min Rain = 0
KSVS 150435Z 12007KT 25/14 A3018 RMK A01 T02500143  RH  054%=      5-min Rain = 0
KSVS 150440Z 12008KT 25/14 A3018 RMK A01 T02500142  RH  053%=      5-min Rain = 0
KSVS 150445Z 12007KT 25/14 A3018 RMK A01 T02500141  RH  053%=      5-min Rain = 0
KSVS 150450Z 11008KT 25/14 A3018 RMK A01 T02520142  RH  053%=      5-min Rain = 0
KSVS 150455Z 11009KT 25/14 A3018 RMK A01 T02540142  RH  052%=      5-min Rain = 0

Page generated in 0.009 seconds.